Terminal Aerodrome Forecast
Issued by NWS Memphis, TN

Home | Current Version | Previous Version | Text Only | Print | Product List | Glossary On
Versions: 1 2 3 4 5 6 7 8 9 10 11 12 13 14 15 16 17
000
FTUS44 KMEG 282336
TAFJBR
TAF
KJBR 282336Z 2900/2924 21008KT P6SM SCT035
     FM290100 22003KT P6SM SCT250
      TEMPO 2909/2913 4SM BR SCT005
     FM291400 25005KT 4SM BR SCT020
     FM291700 27005KT P6SM SCT045=

USA.gov is the U.S. government's official web portal to all federal, state and local government web resources and services.